Terminal Aerodrome Forecast
Issued by NWS Omaha/Valley, NE

Home | Current Version | Previous Version | Text Only | Print | Product List | Glossary On
Versions: 1 2 3 4 5 6 7 8 9 10 11 12 13
000
FTUS43 KOAX 011120
TAFOFK
TAF
KOFK 011120Z 0112/0212 15013KT P6SM SKC
     FM011500 17018G26KT P6SM SKC
     FM020100 16015KT P6SM BKN250 WS008/23040KT=

USA.gov is the U.S. government's official web portal to all federal, state and local government web resources and services.